Time;durP1;ratioP1;P1;durP2;ratioP2;P2;SDS_P1;SDS_P2;PMS_P1;PMS_P2;Temp;Humidity;BMP_temperature;BMP_pressure;BME280_temperature;BME280_humidity;BME280_pressure;Samples;Min_cycle;Max_cycle;Signal;HPM_P1;HPM_P2
2022/08/01 00:00:24;;;;;;;;;;;;;;;24.33;100.00;98885.84;5051425;28;19993;-40
2022/08/01 00:02:49;;;;;;;;;;;;;;;24.73;100.00;98883.03;5051092;28;19986;-40
2022/08/01 00:05:15;;;;;;;;;;;;;;;24.13;100.00;98885.84;5052136;28;19920;-41
2022/08/01 00:07:40;;;;;;;;;;;;;;;24.72;100.00;98883.16;5052692;28;19921;-40
2022/08/01 00:10:06;;;;;;;;;;;;;;;24.99;100.00;98883.22;5053343;28;19921;-40
2022/08/01 00:12:32;;;;;;;;;;;;;;;24.87;100.00;98873.84;5055720;28;19920;-40
2022/08/01 00:14:57;;;;;;;;;;;;;;;25.04;100.00;98878.38;5055197;28;20313;-40
2022/08/01 00:17:22;;;;;;;;;;;;;;;24.71;100.00;98871.00;5053775;28;19971;-40
2022/08/01 00:19:47;;;;;;;;;;;;;;;24.21;100.00;98870.19;5055192;28;19982;-41
2022/08/01 00:22:13;;;;;;;;;;;;;;;23.71;100.00;98879.97;5055584;28;19931;-41
2022/08/01 00:24:38;;;;;;;;;;;;;;;24.63;100.00;98879.59;5055240;28;19924;-41
2022/08/01 00:27:03;;;;;;;;;;;;;;;24.20;100.00;98879.06;5055954;28;19963;-40
2022/08/01 00:29:28;;;;;;;;;;;;;;;24.32;100.00;98873.66;5054613;28;20579;-40
2022/08/01 00:31:54;;;;;;;;;;;;;;;24.11;100.00;98872.00;5054722;28;21044;-40
2022/08/01 00:34:19;;;;;;;;;;;;;;;24.91;100.00;98869.97;5056015;28;19963;-41
2022/08/01 00:36:44;;;;;;;;;;;;;;;24.53;100.00;98869.06;5055421;28;19920;-41
2022/08/01 00:39:09;;;;;;;;;;;;;;;24.42;100.00;98869.19;5055522;28;19923;-40
2022/08/01 00:41:35;;;;;;;;;;;;;;;24.36;100.00;98869.78;5055264;28;19920;-41
2022/08/01 00:44:03;;;;;;;;;;;;;;;24.84;100.00;98880.25;5054155;28;20800;-40
2022/08/01 00:46:29;;;;;;;;;;;;;;;24.77;100.00;98862.50;5054512;28;20317;-40
2022/08/01 00:48:54;;;;;;;;;;;;;;;24.09;100.00;98868.69;5054239;28;19924;-40
2022/08/01 00:51:20;;;;;;;;;;;;;;;23.80;100.00;98871.28;5055629;28;19935;-40
2022/08/01 00:53:45;;;;;;;;;;;;;;;23.34;100.00;98881.38;5054190;28;19920;-40
2022/08/01 00:56:10;;;;;;;;;;;;;;;24.02;100.00;98883.34;5054598;28;20400;-41
2022/08/01 00:58:36;;;;;;;;;;;;;;;23.80;100.00;98885.25;5052349;28;19924;-41
2022/08/01 01:01:01;;;;;;;;;;;;;;;23.24;100.00;98892.81;5052325;28;19921;-41
2022/08/01 01:03:26;;;;;;;;;;;;;;;23.85;100.00;98889.28;5055174;28;19924;-40
2022/08/01 01:06:15;;;;;;;;;;;;;;;23.73;100.00;98893.81;5053799;28;19916;-40
2022/08/01 01:08:48;;;;;;;;;;;;;;;24.01;100.00;98886.94;5050753;28;20452;-40
2022/08/01 01:11:20;;;;;;;;;;;;;;;24.11;100.00;98893.06;5052287;28;19935;-41
2022/08/01 01:13:48;;;;;;;;;;;;;;;23.86;100.00;98890.97;5053029;28;19921;-42
2022/08/01 01:16:14;;;;;;;;;;;;;;;24.46;100.00;98886.38;5052706;28;19920;-44
2022/08/01 01:18:46;;;;;;;;;;;;;;;23.63;100.00;98883.28;5052955;28;19916;-44
2022/08/01 01:21:17;;;;;;;;;;;;;;;23.69;100.00;98885.34;5053380;28;19920;-43
2022/08/01 01:24:02;;;;;;;;;;;;;;;24.16;100.00;98890.00;5054598;28;19920;-44
2022/08/01 01:26:27;;;;;;;;;;;;;;;24.45;100.00;98881.25;5053496;28;20031;-43
2022/08/01 01:29:04;;;;;;;;;;;;;;;23.65;100.00;98877.84;5053878;28;19925;-42
2022/08/01 01:31:30;;;;;;;;;;;;;;;23.91;100.00;98883.47;5053531;28;19924;-41
2022/08/01 01:33:55;;;;;;;;;;;;;;;23.37;100.00;98889.00;5053152;28;20020;-42
2022/08/01 01:36:20;;;;;;;;;;;;;;;23.42;100.00;98906.16;5053285;28;19924;-41
2022/08/01 01:38:46;;;;;;;;;;;;;;;23.49;100.00;98917.78;5051720;28;19947;-41
2022/08/01 01:41:11;;;;;;;;;;;;;;;23.02;100.00;98920.09;5053053;28;19977;-41
2022/08/01 01:43:36;;;;;;;;;;;;;;;23.25;100.00;98929.47;5052273;28;19920;-42
2022/08/01 01:46:02;;;;;;;;;;;;;;;23.85;100.00;98913.78;5051469;28;19920;-41
2022/08/01 01:48:27;;;;;;;;;;;;;;;22.89;100.00;98923.72;5051676;28;19979;-40
2022/08/01 01:50:52;;;;;;;;;;;;;;;23.25;100.00;98933.91;5051392;28;19917;-41
2022/08/01 01:53:18;;;;;;;;;;;;;;;23.11;100.00;98940.34;5052163;28;20019;-41
2022/08/01 01:55:44;;;;;;;;;;;;;;;23.20;100.00;98934.28;5053624;28;19920;-40
2022/08/01 01:58:11;;;;;;;;;;;;;;;22.68;100.00;98938.66;5051872;28;20619;-42
2022/08/01 02:00:36;;;;;;;;;;;;;;;22.69;100.00;98945.56;5050769;28;20401;-41
2022/08/01 02:03:02;;;;;;;;;;;;;;;23.00;100.00;98969.31;5035326;28;19942;-41
2022/08/01 02:05:27;;;;;;;;;;;;;;;23.37;100.00;98965.19;5050844;28;19920;-40
2022/08/01 02:07:53;;;;;;;;;;;;;;;22.82;100.00;98959.34;5052133;28;19921;-41
2022/08/01 02:10:18;;;;;;;;;;;;;;;22.98;100.00;98970.22;5043099;28;20019;-42
2022/08/01 02:12:45;;;;;;;;;;;;;;;23.09;100.00;98963.28;5051925;28;20031;-41
2022/08/01 02:15:10;;;;;;;;;;;;;;;23.33;100.00;98961.19;5052593;28;19927;-41
2022/08/01 02:17:43;;;;;;;;;;;;;;;23.55;100.00;98959.34;5051039;28;19956;-40
2022/08/01 02:20:09;;;;;;;;;;;;;;;23.06;100.00;98950.38;5040718;28;20829;-41
2022/08/01 02:22:40;;;;;;;;;;;;;;;22.95;100.00;98952.09;5051350;28;19924;-41
2022/08/01 02:25:10;;;;;;;;;;;;;;;22.96;100.00;98956.38;5054106;28;19924;-41
2022/08/01 02:27:42;;;;;;;;;;;;;;;22.49;100.00;98960.34;5051293;28;20013;-41
2022/08/01 02:30:08;;;;;;;;;;;;;;;22.91;100.00;98969.06;5052483;28;19917;-40
2022/08/01 02:32:38;;;;;;;;;;;;;;;23.31;100.00;98963.13;5051317;28;19961;-41
2022/08/01 02:35:07;;;;;;;;;;;;;;;23.15;100.00;98957.50;5051927;28;19973;-40
2022/08/01 02:37:33;;;;;;;;;;;;;;;23.27;100.00;98956.47;5050677;28;20007;-41
2022/08/01 02:39:58;;;;;;;;;;;;;;;22.77;100.00;98956.25;5049701;28;20313;-40
2022/08/01 02:42:24;;;;;;;;;;;;;;;23.49;100.00;98957.22;5052192;28;19931;-40
2022/08/01 02:44:49;;;;;;;;;;;;;;;23.53;100.00;98943.69;5051185;28;19977;-42
2022/08/01 02:47:15;;;;;;;;;;;;;;;24.12;100.00;98938.59;5052955;28;19974;-40
2022/08/01 02:49:42;;;;;;;;;;;;;;;23.98;100.00;98929.31;5033661;28;20678;-40
2022/08/01 02:52:08;;;;;;;;;;;;;;;23.21;100.00;98930.69;5051613;28;19928;-41
2022/08/01 02:54:34;;;;;;;;;;;;;;;22.89;100.00;98942.09;5051980;28;19927;-40
2022/08/01 02:57:00;;;;;;;;;;;;;;;23.03;100.00;98943.59;5050039;28;19920;-41
2022/08/01 02:59:25;;;;;;;;;;;;;;;23.89;100.00;98935.38;5049730;28;20057;-40
2022/08/01 03:01:51;;;;;;;;;;;;;;;24.52;100.00;98927.97;5051514;28;19924;-41
2022/08/01 03:04:17;;;;;;;;;;;;;;;24.19;100.00;98916.84;5050293;28;19928;-41
2022/08/01 03:06:42;;;;;;;;;;;;;;;23.34;100.00;98923.44;5052247;28;19920;-42
2022/08/01 03:09:08;;;;;;;;;;;;;;;23.12;100.00;98931.47;5049670;28;19924;-42
2022/08/01 03:11:33;;;;;;;;;;;;;;;22.73;100.00;98936.47;5050891;28;19928;-43
2022/08/01 03:14:01;;;;;;;;;;;;;;;22.47;100.00;98955.22;5052061;28;19959;-43
2022/08/01 03:16:27;;;;;;;;;;;;;;;22.45;100.00;98980.75;5050381;28;19920;-44
2022/08/01 03:18:53;;;;;;;;;;;;;;;22.65;100.00;98996.66;5050346;28;19916;-44
2022/08/01 03:21:19;;;;;;;;;;;;;;;23.11;100.00;98996.31;5049963;28;19925;-42
2022/08/01 03:23:45;;;;;;;;;;;;;;;23.43;100.00;98979.63;5051178;28;19920;-41
2022/08/01 03:26:10;;;;;;;;;;;;;;;23.85;100.00;98965.53;5051992;28;19935;-41
2022/08/01 03:28:35;;;;;;;;;;;;;;;23.60;100.00;98962.38;5050117;28;19921;-41
2022/08/01 03:31:01;;;;;;;;;;;;;;;23.04;100.00;98966.28;5049806;28;20663;-42
2022/08/01 03:33:26;;;;;;;;;;;;;;;23.28;100.00;98968.63;5050138;28;19979;-41
2022/08/01 03:35:53;;;;;;;;;;;;;;;22.98;100.00;98967.59;5050619;28;19920;-41
2022/08/01 03:38:19;;;;;;;;;;;;;;;22.64;100.00;98979.25;5052474;28;19916;-40
2022/08/01 03:40:48;;;;;;;;;;;;;;;22.42;100.00;98990.66;5050133;28;19921;-40
2022/08/01 03:43:18;;;;;;;;;;;;;;;23.19;100.00;98995.66;5036094;28;19989;-41
2022/08/01 03:45:45;;;;;;;;;;;;;;;23.47;100.00;98970.53;5054797;28;19960;-40
2022/08/01 03:48:16;;;;;;;;;;;;;;;23.36;100.00;98966.19;5053188;28;19959;-40
2022/08/01 03:50:42;;;;;;;;;;;;;;;23.20;100.00;98965.81;5053702;28;20993;-40
2022/08/01 03:53:09;;;;;;;;;;;;;;;23.38;100.00;98966.06;5055047;28;19987;-40
2022/08/01 03:55:34;;;;;;;;;;;;;;;23.18;100.00;98965.13;5054289;28;19922;-40
2022/08/01 03:57:59;;;;;;;;;;;;;;;23.45;100.00;98969.00;5054081;28;20521;-40
2022/08/01 04:00:25;;;;;;;;;;;;;;;23.33;100.00;98971.72;5052729;28;20727;-40
2022/08/01 04:02:51;;;;;;;;;;;;;;;23.35;100.00;98969.75;5052651;28;20502;-40
2022/08/01 04:05:17;;;;;;;;;;;;;;;23.62;100.00;98976.25;5053078;28;19982;-40
2022/08/01 04:07:45;;;;;;;;;;;;;;;23.58;100.00;98964.31;5053990;28;20019;-40
2022/08/01 04:10:10;;;;;;;;;;;;;;;23.12;100.00;98968.25;5055272;28;20023;-41
2022/08/01 04:12:35;;;;;;;;;;;;;;;23.64;100.00;98973.47;5054594;28;19916;-41
2022/08/01 04:15:01;;;;;;;;;;;;;;;22.95;100.00;98962.59;5056235;28;19916;-40
2022/08/01 04:17:26;;;;;;;;;;;;;;;23.11;100.00;98966.59;5052250;28;20547;-40
2022/08/01 04:19:51;;;;;;;;;;;;;;;23.24;100.00;98967.25;5055405;28;19967;-40
2022/08/01 04:22:16;;;;;;;;;;;;;;;22.97;100.00;98962.50;5055142;28;19984;-40
2022/08/01 04:24:48;;;;;;;;;;;;;;;22.75;100.00;98976.56;5054851;28;19974;-40
2022/08/01 04:27:14;;;;;;;;;;;;;;;23.03;100.00;98979.53;5054249;28;19931;-40
2022/08/01 04:29:39;;;;;;;;;;;;;;;23.11;100.00;98982.38;5053638;28;19975;-40
2022/08/01 04:32:06;;;;;;;;;;;;;;;22.98;100.00;98982.53;5053229;28;20514;-40
2022/08/01 04:34:31;;;;;;;;;;;;;;;23.54;100.00;98974.28;5051795;28;19928;-40
2022/08/01 04:36:56;;;;;;;;;;;;;;;23.17;100.00;98977.44;5054745;28;20442;-40
2022/08/01 04:39:23;;;;;;;;;;;;;;;23.17;100.00;98982.69;5054771;28;20059;-40
2022/08/01 04:41:48;;;;;;;;;;;;;;;23.32;100.00;98980.53;5054014;28;20011;-40
2022/08/01 04:44:14;;;;;;;;;;;;;;;23.37;100.00;98982.78;5055124;28;21110;-40
2022/08/01 04:46:39;;;;;;;;;;;;;;;23.49;100.00;98981.75;5053983;28;19971;-40
2022/08/01 04:49:05;;;;;;;;;;;;;;;23.05;100.00;98982.88;5053296;28;19966;-40
2022/08/01 04:51:30;;;;;;;;;;;;;;;22.90;100.00;98991.06;5054247;28;19969;-40
2022/08/01 04:53:57;;;;;;;;;;;;;;;23.24;100.00;99001.41;5053847;28;19918;-40
2022/08/01 04:56:22;;;;;;;;;;;;;;;22.48;100.00;99006.72;5054814;28;19999;-40
2022/08/01 04:58:48;;;;;;;;;;;;;;;22.91;100.00;99000.59;5054483;28;19921;-41
2022/08/01 05:01:13;;;;;;;;;;;;;;;23.12;100.00;99005.03;5054756;28;20041;-40
2022/08/01 05:03:38;;;;;;;;;;;;;;;22.98;100.00;99003.53;5055576;28;20061;-40
2022/08/01 05:06:04;;;;;;;;;;;;;;;22.81;100.00;99011.97;5053526;28;19928;-40
2022/08/01 05:08:29;;;;;;;;;;;;;;;22.96;100.00;99003.66;5054165;28;19920;-40
2022/08/01 05:10:55;;;;;;;;;;;;;;;22.68;100.00;99017.41;5053767;28;19961;-40
2022/08/01 05:13:20;;;;;;;;;;;;;;;22.32;100.00;99022.06;5055373;28;19958;-40
2022/08/01 05:15:45;;;;;;;;;;;;;;;22.70;100.00;99026.00;5054815;28;20323;-40
2022/08/01 05:18:11;;;;;;;;;;;;;;;22.66;100.00;99029.81;5053826;28;20365;-40
2022/08/01 05:20:36;;;;;;;;;;;;;;;22.80;100.00;99029.53;5054424;28;20056;-40
2022/08/01 05:23:02;;;;;;;;;;;;;;;22.95;100.00;99030.06;5055017;28;19956;-40
2022/08/01 05:25:28;;;;;;;;;;;;;;;22.70;100.00;99026.00;5052685;28;19963;-40
2022/08/01 05:27:53;;;;;;;;;;;;;;;22.31;100.00;99028.28;5052319;28;19967;-41
2022/08/01 05:30:18;;;;;;;;;;;;;;;22.87;100.00;99028.06;5052397;28;20234;-40
2022/08/01 05:32:43;;;;;;;;;;;;;;;22.91;100.00;99034.72;5053899;28;20206;-40
2022/08/01 05:35:09;;;;;;;;;;;;;;;22.74;100.00;99035.28;5054499;28;20007;-40
2022/08/01 05:37:34;;;;;;;;;;;;;;;22.79;100.00;99030.50;5054003;28;19928;-40
2022/08/01 05:39:59;;;;;;;;;;;;;;;22.88;100.00;99037.63;5053175;28;19932;-40
2022/08/01 05:42:24;;;;;;;;;;;;;;;22.87;100.00;99037.72;5053849;28;20442;-40
2022/08/01 05:44:50;;;;;;;;;;;;;;;22.85;100.00;99035.22;5054003;28;20713;-40
2022/08/01 05:47:16;;;;;;;;;;;;;;;23.06;100.00;99037.91;5053738;28;20395;-40
2022/08/01 05:49:41;;;;;;;;;;;;;;;22.67;100.00;99041.97;5052885;28;20031;-40
2022/08/01 05:52:06;;;;;;;;;;;;;;;22.96;100.00;99043.03;5054189;28;20000;-40
2022/08/01 05:54:32;;;;;;;;;;;;;;;22.75;100.00;99035.16;5053522;28;19916;-40
2022/08/01 05:57:01;;;;;;;;;;;;;;;22.97;100.00;99039.47;5053514;28;19916;-40
2022/08/01 05:59:26;;;;;;;;;;;;;;;22.79;100.00;99042.78;5053556;28;19921;-40
2022/08/01 06:01:51;;;;;;;;;;;;;;;23.10;100.00;99044.56;5053502;28;19917;-40
2022/08/01 06:04:17;;;;;;;;;;;;;;;22.59;100.00;99039.16;5054020;28;19916;-40
2022/08/01 06:06:42;;;;;;;;;;;;;;;22.62;100.00;99046.78;5052911;28;19916;-40
2022/08/01 06:09:07;;;;;;;;;;;;;;;23.24;100.00;99048.69;5052816;28;19927;-40
2022/08/01 06:11:32;;;;;;;;;;;;;;;23.25;100.00;99042.47;5053626;28;19925;-40
2022/08/01 06:13:57;;;;;;;;;;;;;;;23.07;100.00;99038.75;5054297;28;19916;-40
2022/08/01 06:16:23;;;;;;;;;;;;;;;22.91;100.00;99042.59;5053851;28;19920;-40
2022/08/01 06:18:48;;;;;;;;;;;;;;;23.35;100.00;99053.84;5053425;28;20359;-40
2022/08/01 06:21:13;;;;;;;;;;;;;;;23.80;100.00;99047.47;5053976;28;19944;-40
2022/08/01 06:23:41;;;;;;;;;;;;;;;24.84;100.00;99026.94;5054020;28;19966;-40
2022/08/01 06:26:06;;;;;;;;;;;;;;;24.78;100.00;99016.94;5053797;28;19962;-40
2022/08/01 06:28:31;;;;;;;;;;;;;;;24.34;100.00;99008.59;5053445;28;19920;-40
2022/08/01 06:30:58;;;;;;;;;;;;;;;25.23;100.00;99005.81;5051560;28;19923;-40
2022/08/01 06:33:24;;;;;;;;;;;;;;;24.58;100.00;99001.13;5052798;28;20001;-40
2022/08/01 06:35:49;;;;;;;;;;;;;;;24.21;100.00;98999.13;5052817;28;19921;-40
2022/08/01 06:38:14;;;;;;;;;;;;;;;25.13;100.00;99005.78;5052467;28;20379;-40
2022/08/01 06:40:39;;;;;;;;;;;;;;;24.88;100.00;99006.38;5052318;28;19916;-40
2022/08/01 06:43:05;;;;;;;;;;;;;;;25.16;100.00;98999.44;5052603;28;20023;-40
2022/08/01 06:45:30;;;;;;;;;;;;;;;24.32;100.00;99000.00;5051953;28;19924;-40
2022/08/01 06:47:55;;;;;;;;;;;;;;;25.02;100.00;99003.31;5052867;28;19917;-40
2022/08/01 06:50:20;;;;;;;;;;;;;;;24.39;100.00;98996.66;5052401;28;19916;-39
2022/08/01 06:52:46;;;;;;;;;;;;;;;24.48;100.00;99010.00;5052425;28;20282;-40
2022/08/01 06:55:11;;;;;;;;;;;;;;;24.10;100.00;99008.94;5051316;28;19998;-40
2022/08/01 06:57:36;;;;;;;;;;;;;;;24.55;100.00;99004.03;5051506;28;19920;-39
2022/08/01 07:00:07;;;;;;;;;;;;;;;24.60;100.00;99007.09;5050760;28;19959;-40
2022/08/01 07:02:32;;;;;;;;;;;;;;;24.15;100.00;99010.22;5051561;28;19978;-40
2022/08/01 07:05:00;;;;;;;;;;;;;;;23.41;100.00;99014.91;5051470;28;19916;-40
2022/08/01 07:07:25;;;;;;;;;;;;;;;23.26;100.00;99028.34;5053954;28;20007;-39
2022/08/01 07:09:50;;;;;;;;;;;;;;;24.48;100.00;99013.47;5052630;28;19931;-39
2022/08/01 07:12:15;;;;;;;;;;;;;;;24.64;100.00;99007.66;5052156;28;20713;-40
2022/08/01 07:14:41;;;;;;;;;;;;;;;24.20;100.00;99008.00;5053339;28;20015;-40
2022/08/01 07:17:06;;;;;;;;;;;;;;;23.36;100.00;99012.66;5055344;28;19995;-40
2022/08/01 07:19:31;;;;;;;;;;;;;;;23.80;100.00;99016.75;5055327;28;19916;-39
2022/08/01 07:21:56;;;;;;;;;;;;;;;24.30;100.00;99025.59;5057891;28;19923;-39
2022/08/01 07:24:22;;;;;;;;;;;;;;;24.19;100.00;99022.13;5057597;28;20673;-39
2022/08/01 07:26:48;;;;;;;;;;;;;;;23.84;100.00;99016.50;5056687;28;20231;-39
2022/08/01 07:29:13;;;;;;;;;;;;;;;24.98;100.00;99009.88;5054973;28;19920;-39
2022/08/01 07:31:38;;;;;;;;;;;;;;;24.72;100.00;99009.59;5055309;28;19935;-40
2022/08/01 07:34:03;;;;;;;;;;;;;;;24.71;100.00;99010.56;5056773;28;19920;-39
2022/08/01 07:36:29;;;;;;;;;;;;;;;24.29;100.00;99016.03;5057327;28;19916;-39
2022/08/01 07:38:54;;;;;;;;;;;;;;;25.08;100.00;99007.19;5055901;28;19921;-39
2022/08/01 07:41:20;;;;;;;;;;;;;;;25.07;100.00;99010.81;5057055;28;19923;-39
2022/08/01 07:43:45;;;;;;;;;;;;;;;24.59;100.00;99015.97;5056410;28;19916;-39
2022/08/01 07:46:10;;;;;;;;;;;;;;;25.04;100.00;99012.75;5056372;28;19916;-39
2022/08/01 07:48:35;;;;;;;;;;;;;;;25.03;100.00;99016.34;5055961;28;19956;-39
2022/08/01 07:51:01;;;;;;;;;;;;;;;24.61;100.00;99019.31;5055991;28;19954;-39
2022/08/01 07:53:26;;;;;;;;;;;;;;;24.50;100.00;99021.25;5056290;28;19993;-39
2022/08/01 07:55:51;;;;;;;;;;;;;;;24.81;100.00;99022.78;5054966;28;19998;-39
2022/08/01 07:58:16;;;;;;;;;;;;;;;24.03;100.00;99029.69;5055953;28;19966;-39
2022/08/01 08:00:42;;;;;;;;;;;;;;;24.58;100.00;99027.47;5056401;28;19916;-39
2022/08/01 08:03:07;;;;;;;;;;;;;;;24.91;100.00;99022.75;5056846;28;19924;-39
2022/08/01 08:05:35;;;;;;;;;;;;;;;25.71;100.00;99025.94;5056671;28;19916;-39
2022/08/01 08:08:14;;;;;;;;;;;;;;;25.00;100.00;99021.09;5056342;28;19920;-39
2022/08/01 08:10:39;;;;;;;;;;;;;;;26.49;100.00;99018.41;5056018;28;19916;-39
2022/08/01 08:13:04;;;;;;;;;;;;;;;26.68;100.00;99014.81;5055722;28;20422;-39
2022/08/01 08:15:29;;;;;;;;;;;;;;;26.91;100.00;99011.69;5056462;28;19923;-39
2022/08/01 08:17:55;;;;;;;;;;;;;;;27.89;100.00;99020.25;5056150;28;19923;-39
2022/08/01 08:20:24;;;;;;;;;;;;;;;25.83;100.00;99021.28;5055650;28;19995;-39
2022/08/01 08:22:50;;;;;;;;;;;;;;;26.68;100.00;99017.44;5055982;28;20002;-39
2022/08/01 08:25:15;;;;;;;;;;;;;;;27.48;100.00;99028.00;5056028;28;19916;-39
2022/08/01 08:27:40;;;;;;;;;;;;;;;27.79;100.00;99016.88;5055424;28;19923;-39
2022/08/01 08:30:07;;;;;;;;;;;;;;;27.52;100.00;99029.31;5054310;28;20035;-39
2022/08/01 08:32:32;;;;;;;;;;;;;;;25.93;100.00;99032.63;5055496;28;19970;-39
2022/08/01 08:34:57;;;;;;;;;;;;;;;25.71;100.00;99035.66;5055893;28;19991;-39
2022/08/01 08:37:23;;;;;;;;;;;;;;;26.15;100.00;99023.50;5055621;28;19951;-39
2022/08/01 08:39:48;;;;;;;;;;;;;;;27.67;100.00;99031.41;5055428;28;20011;-40
2022/08/01 08:42:13;;;;;;;;;;;;;;;28.84;100.00;99019.16;5055296;28;19959;-39
2022/08/01 08:44:42;;;;;;;;;;;;;;;29.59;100.00;99030.34;5055538;28;19969;-39
2022/08/01 08:47:07;;;;;;;;;;;;;;;29.40;100.00;99030.72;5055115;28;19916;-39
2022/08/01 08:49:33;;;;;;;;;;;;;;;27.91;100.00;99036.81;5054101;28;19920;-39
2022/08/01 08:51:59;;;;;;;;;;;;;;;26.43;100.00;99036.66;5054687;28;19922;-40
2022/08/01 08:54:24;;;;;;;;;;;;;;;26.46;100.00;99041.66;5054119;28;19917;-39
2022/08/01 08:56:50;;;;;;;;;;;;;;;26.32;100.00;99036.88;5053647;28;19917;-39
2022/08/01 08:59:15;;;;;;;;;;;;;;;27.17;100.00;99040.81;5053323;28;19986;-39
2022/08/01 09:01:41;;;;;;;;;;;;;;;27.53;100.00;99046.88;5055034;28;19921;-39
2022/08/01 09:04:06;;;;;;;;;;;;;;;28.38;100.00;99034.66;5055101;28;19916;-39
2022/08/01 09:06:32;;;;;;;;;;;;;;;27.76;100.00;99051.63;5054721;28;20705;-39
2022/08/01 09:08:57;;;;;;;;;;;;;;;27.04;100.00;99046.50;5054347;28;19955;-39
2022/08/01 09:11:23;;;;;;;;;;;;;;;25.99;100.00;99049.72;5053631;28;19960;-39
2022/08/01 09:14:01;;;;;;;;;;;;;;;25.92;100.00;99060.03;5055005;28;19916;-39
2022/08/01 09:16:27;;;;;;;;;;;;;;;25.99;100.00;99055.00;5055341;28;19932;-39
2022/08/01 09:18:52;;;;;;;;;;;;;;;25.71;100.00;99054.94;5054294;28;20576;-39
2022/08/01 09:21:19;;;;;;;;;;;;;;;26.86;100.00;99054.44;5054785;28;19939;-39
2022/08/01 09:23:48;;;;;;;;;;;;;;;28.25;100.00;99051.81;5055455;28;19916;-39
2022/08/01 09:26:15;;;;;;;;;;;;;;;28.07;100.00;99056.41;5054953;28;19916;-39
2022/08/01 09:28:40;;;;;;;;;;;;;;;28.71;100.00;99056.75;5054635;28;20015;-39
2022/08/01 09:31:07;;;;;;;;;;;;;;;29.57;100.00;99048.25;5050860;28;19917;-39
2022/08/01 09:33:51;;;;;;;;;;;;;;;28.52;100.00;99057.88;5054646;28;20381;-39
2022/08/01 09:36:16;;;;;;;;;;;;;;;28.47;100.00;99060.19;5054877;28;19924;-39
2022/08/01 09:38:41;;;;;;;;;;;;;;;28.82;100.00;99058.25;5054841;28;19916;-39
2022/08/01 09:41:07;;;;;;;;;;;;;;;29.59;100.00;99056.88;5053347;28;19916;-39
2022/08/01 09:43:32;;;;;;;;;;;;;;;30.94;100.00;99056.72;5054317;28;19931;-39
2022/08/01 09:45:58;;;;;;;;;;;;;;;29.31;100.00;99059.09;5054062;28;19966;-39
2022/08/01 09:48:23;;;;;;;;;;;;;;;27.17;100.00;99077.81;5054628;28;20013;-39
2022/08/01 09:50:50;;;;;;;;;;;;;;;26.37;100.00;99084.81;5054056;28;20968;-39
2022/08/01 09:53:15;;;;;;;;;;;;;;;26.90;100.00;99074.28;5053955;28;19971;-39
2022/08/01 09:55:40;;;;;;;;;;;;;;;26.29;100.00;99078.44;5055056;28;19999;-39
2022/08/01 09:58:06;;;;;;;;;;;;;;;25.85;100.00;99085.28;5053907;28;20372;-39
2022/08/01 10:00:39;;;;;;;;;;;;;;;25.51;100.00;99087.63;5080793;27;19924;-40
2022/08/01 10:03:23;;;;;;;;;;;;;;;26.25;100.00;99079.72;5113759;27;20004;-40
2022/08/01 10:05:50;;;;;;;;;;;;;;;27.57;100.00;99087.03;5071854;28;19916;-40
2022/08/01 10:08:16;;;;;;;;;;;;;;;29.83;100.00;99073.75;5069873;28;19912;-40
2022/08/01 10:10:41;;;;;;;;;;;;;;;29.65;100.00;99081.91;5072953;28;19920;-40
2022/08/01 10:13:06;;;;;;;;;;;;;;;29.90;100.00;99081.84;5070707;28;19969;-40
2022/08/01 10:15:31;;;;;;;;;;;;;;;29.24;100.00;99081.13;5070982;28;19916;-40
2022/08/01 10:17:57;;;;;;;;;;;;;;;29.97;100.00;99080.16;5068683;28;19954;-40
2022/08/01 10:20:24;;;;;;;;;;;;;;;29.39;100.00;99079.47;5067748;28;19927;-40
2022/08/01 10:22:49;;;;;;;;;;;;;;;29.64;100.00;99074.13;5072678;28;19920;-40
2022/08/01 10:25:17;;;;;;;;;;;;;;;28.98;100.00;99084.75;5070794;28;19931;-40
2022/08/01 10:27:45;;;;;;;;;;;;;;;30.49;100.00;99076.13;5071229;28;19916;-40
2022/08/01 10:30:10;;;;;;;;;;;;;;;30.54;100.00;99079.09;5070166;28;19927;-40
2022/08/01 10:32:35;;;;;;;;;;;;;;;30.05;100.00;99076.66;5070532;28;19921;-40
2022/08/01 10:35:01;;;;;;;;;;;;;;;30.67;100.00;99063.38;5070404;28;19923;-40
2022/08/01 10:37:26;;;;;;;;;;;;;;;30.14;100.00;99075.63;5071333;28;19924;-40
2022/08/01 10:39:52;;;;;;;;;;;;;;;30.09;100.00;99080.66;5069057;28;19974;-40
2022/08/01 10:42:17;;;;;;;;;;;;;;;31.20;100.00;99067.00;5069845;28;19916;-40
2022/08/01 10:44:46;;;;;;;;;;;;;;;30.40;100.00;99076.19;5068504;28;19917;-40
2022/08/01 10:47:12;;;;;;;;;;;;;;;30.33;100.00;99069.91;5067565;28;19916;-40
2022/08/01 10:49:48;;;;;;;;;;;;;;;31.59;100.00;99058.00;5069125;28;19936;-40
2022/08/01 10:52:19;;;;;;;;;;;;;;;31.61;100.00;99058.63;5070687;28;19941;-40
2022/08/01 10:54:45;;;;;;;;;;;;;;;30.54;100.00;99066.66;5069360;28;19916;-40
2022/08/01 10:57:11;;;;;;;;;;;;;;;28.76;100.00;99060.56;5069020;28;19920;-40
2022/08/01 10:59:47;;;;;;;;;;;;;;;26.72;100.00;99083.22;5068419;28;19944;-40
2022/08/01 11:02:12;;;;;;;;;;;;;;;29.00;100.00;99066.88;5070092;28;19920;-40
2022/08/01 11:04:49;;;;;;;;;;;;;;;29.15;100.00;99057.28;5074657;28;20574;-40
2022/08/01 11:07:21;;;;;;;;;;;;;;;27.30;100.00;99073.00;5069738;28;19916;-40
2022/08/01 11:09:50;;;;;;;;;;;;;;;27.56;100.00;99079.28;5067750;28;20377;-40
2022/08/01 11:12:16;;;;;;;;;;;;;;;27.76;100.00;99080.72;5056125;28;19916;-40
2022/08/01 11:15:00;;;;;;;;;;;;;;;28.88;100.00;99073.50;5056755;28;19916;-40
2022/08/01 11:17:32;;;;;;;;;;;;;;;28.68;100.00;99072.97;5056378;28;19917;-40
2022/08/01 11:20:03;;;;;;;;;;;;;;;29.12;100.00;99065.56;5055384;28;19920;-40
2022/08/01 11:22:28;;;;;;;;;;;;;;;28.41;100.00;99082.00;5056854;28;19916;-40
2022/08/01 11:24:56;;;;;;;;;;;;;;;29.27;100.00;99078.16;5054657;28;19924;-41
2022/08/01 11:27:22;;;;;;;;;;;;;;;29.25;100.00;99066.91;5064882;28;19920;-40
2022/08/01 11:30:06;;;;;;;;;;;;;;;28.85;100.00;99076.47;5056886;28;19920;-40
2022/08/01 11:32:31;;;;;;;;;;;;;;;29.24;100.00;99065.22;5062689;28;19962;-40
2022/08/01 11:34:57;;;;;;;;;;;;;;;29.73;100.00;99059.84;5062359;28;19916;-40
2022/08/01 11:37:22;;;;;;;;;;;;;;;28.84;100.00;99070.34;5055584;28;19923;-40
2022/08/01 11:40:07;;;;;;;;;;;;;;;27.01;100.00;99083.81;5055508;28;19947;-40
2022/08/01 11:42:33;;;;;;;;;;;;;;;26.47;100.00;99089.03;5055924;28;19921;-40
2022/08/01 11:44:58;;;;;;;;;;;;;;;27.52;100.00;99086.69;5054211;28;19923;-40
2022/08/01 11:47:42;;;;;;;;;;;;;;;28.20;100.00;99090.38;5056164;28;19969;-40
2022/08/01 11:50:07;;;;;;;;;;;;;;;28.49;100.00;99090.84;5055351;28;19935;-40
2022/08/01 11:52:34;;;;;;;;;;;;;;;26.22;100.00;99098.47;5054963;28;19916;-40
2022/08/01 11:55:02;;;;;;;;;;;;;;;26.91;100.00;99101.53;5055865;28;20338;-40
2022/08/01 11:57:33;;;;;;;;;;;;;;;26.97;100.00;99095.66;5056418;28;19920;-40
2022/08/01 11:59:59;;;;;;;;;;;;;;;27.18;100.00;99094.50;5055172;28;20585;-40
2022/08/01 12:02:28;;;;;;;;;;;;;;;27.02;100.00;99096.03;5059513;28;20035;-40
2022/08/01 12:04:53;;;;;;;;;;;;;;;27.53;100.00;99105.06;5055455;28;19940;-40
2022/08/01 12:07:19;;;;;;;;;;;;;;;27.27;100.00;99099.72;5057858;28;20460;-39
2022/08/01 12:09:46;;;;;;;;;;;;;;;26.57;100.00;99096.94;5054147;28;19916;-39
2022/08/01 12:12:11;;;;;;;;;;;;;;;26.78;100.00;99109.03;5052525;28;19912;-39
2022/08/01 12:14:36;;;;;;;;;;;;;;;27.34;100.00;99097.31;5054220;28;20338;-39
2022/08/01 12:17:02;;;;;;;;;;;;;;;26.82;100.00;99105.09;5052715;28;19999;-39
2022/08/01 12:19:27;;;;;;;;;;;;;;;26.78;100.00;99119.63;5055889;28;19925;-39
2022/08/01 12:22:05;;;;;;;;;;;;;;;26.61;100.00;99124.69;5053046;28;19917;-39
2022/08/01 12:24:30;;;;;;;;;;;;;;;27.75;100.00;99118.75;5054387;28;19967;-39
2022/08/01 12:26:55;;;;;;;;;;;;;;;28.63;100.00;99118.53;5054486;28;19952;-39
2022/08/01 12:29:30;;;;;;;;;;;;;;;27.37;100.00;99126.13;5054369;28;19920;-39
2022/08/01 12:31:56;;;;;;;;;;;;;;;27.48;100.00;99117.94;5055680;28;20008;-39